createdAt,value
2018-02-06T01:23:15.505Z,17.02
2018-02-06T04:38:28.086Z,22.33
2018-02-06T04:40:57.008Z,23.92
2018-02-06T04:43:31.409Z,24.23
2018-02-06T04:46:00.341Z,23.85
2018-02-06T04:48:37.904Z,22.30
2018-02-06T04:51:06.065Z,22.13
2018-02-06T05:21:04.926Z,24.15
2018-02-06T05:26:48.725Z,24.87
2018-02-06T05:29:17.653Z,21.75
2018-02-06T05:31:51.319Z,24.12
2018-02-06T05:34:19.508Z,22.98
2018-02-06T05:36:51.416Z,24.25
2018-02-06T05:39:20.637Z,26.12
2018-02-06T05:50:30.084Z,24.00
2018-02-06T05:55:39.425Z,22.67
2018-02-06T05:58:07.718Z,23.80
2018-02-06T06:00:36.862Z,26.10
2018-02-06T06:03:05.062Z,24.17
2018-02-06T06:05:33.210Z,23.50
2018-02-06T06:08:02.221Z,21.70
2018-02-06T06:10:37.373Z,27.40
2018-02-06T06:13:05.601Z,23.98
2018-02-06T06:15:34.085Z,24.65
2018-02-06T06:18:03.479Z,24.58
2018-02-06T06:20:32.107Z,25.75
2018-02-06T06:23:00.721Z,23.67
2018-02-06T06:25:30.880Z,25.83
2018-02-06T06:28:05.975Z,27.85
2018-02-06T06:30:35.167Z,27.77
2018-02-06T06:33:04.597Z,25.65
2018-02-06T06:35:32.777Z,25.98
2018-02-06T06:38:03.422Z,26.75
2018-02-06T06:40:33.667Z,27.15
2018-02-06T06:43:05.481Z,24.02
2018-02-06T06:45:35.148Z,24.30
2018-02-06T06:48:07.881Z,26.00
2018-02-06T06:50:37.542Z,25.88
2018-02-06T06:53:06.564Z,26.90
2018-02-06T06:55:35.780Z,29.45
2018-02-06T06:58:06.437Z,25.70
2018-02-06T07:00:34.683Z,26.83
2018-02-06T07:03:02.901Z,26.87
2018-02-06T07:05:31.650Z,24.37
2018-02-06T07:08:05.567Z,23.25
2018-02-06T07:10:34.124Z,24.77
2018-02-06T07:13:04.888Z,27.60
2018-02-06T07:15:34.001Z,20.37
2018-02-06T07:18:10.584Z,22.27
2018-02-06T07:20:40.082Z,25.15
2018-02-06T07:23:08.311Z,23.45
2018-02-06T07:25:37.443Z,23.65
2018-02-06T07:28:16.246Z,24.05
2018-02-06T07:30:49.965Z,23.23
2018-02-06T07:36:31.456Z,23.08
2018-02-06T07:38:59.623Z,25.40
2018-02-06T07:50:54.199Z,24.60
2018-02-06T07:53:22.437Z,24.08
2018-02-06T07:55:54.739Z,24.42
2018-02-06T08:12:29.513Z,22.08
2018-02-06T08:24:04.394Z,25.05
2018-02-06T08:26:38.270Z,26.73
2018-02-06T08:29:08.540Z,25.90
2018-02-06T08:31:39.835Z,24.98
2018-02-06T08:34:08.485Z,25.90
2018-02-06T08:36:36.732Z,24.73
2018-02-06T08:39:05.845Z,23.50
2018-02-06T08:41:34.779Z,23.62
2018-02-06T08:44:03.002Z,23.87
2018-02-06T08:46:31.508Z,24.25
2018-02-06T08:49:00.595Z,26.05
2018-02-06T08:51:28.789Z,21.48
2018-02-06T08:53:59.283Z,25.08
2018-02-06T08:56:27.974Z,24.70
2018-02-06T08:58:57.001Z,26.02
2018-02-06T09:01:25.222Z,25.00
2018-02-06T09:03:54.797Z,25.73
2018-02-06T09:06:22.967Z,26.65
2018-02-06T09:08:51.428Z,24.75
2018-02-06T09:11:20.446Z,23.73
2018-02-06T09:13:49.975Z,26.15
2018-02-06T09:16:18.897Z,24.73
2018-02-06T09:18:47.060Z,25.17
2018-02-06T09:21:19.092Z,23.98
2018-02-06T09:23:47.286Z,25.20
2018-02-06T09:26:16.537Z,23.30
2018-02-06T09:28:44.702Z,24.98
2018-02-06T09:31:13.456Z,26.90
2018-02-06T09:33:43.301Z,24.00
2018-02-06T09:36:17.723Z,24.45
2018-02-06T09:38:46.415Z,24.80
2018-02-06T09:41:15.329Z,24.20
2018-02-06T09:43:44.273Z,23.10
2018-02-06T09:46:13.424Z,23.60
2018-02-06T09:48:42.397Z,25.00
2018-02-06T09:51:11.312Z,27.73
2018-02-06T09:53:40.966Z,24.83
2018-02-06T09:56:09.734Z,23.10
2018-02-06T09:58:39.218Z,23.77
2018-02-06T10:01:11.318Z,22.90
2018-02-06T10:03:41.192Z,23.80
2018-02-06T10:06:15.125Z,22.77
2018-02-06T10:13:58.194Z,25.10
2018-02-06T10:16:27.681Z,24.52
2018-02-06T10:18:57.788Z,25.40
2018-02-06T10:21:32.417Z,25.75
2018-02-06T13:01:47.976Z,23.33
2018-02-06T13:04:17.452Z,21.33
2018-02-06T13:06:52.165Z,22.35
2018-02-06T13:09:20.824Z,22.17
2018-02-06T13:11:49.641Z,21.85
2018-02-06T13:14:18.655Z,21.55
2018-02-06T13:16:55.807Z,21.75
2018-02-06T13:19:24.069Z,21.37
2018-02-06T13:24:28.769Z,20.48
2018-02-06T13:27:03.239Z,21.45
2018-02-06T13:29:38.946Z,25.30
2018-02-06T13:32:10.265Z,23.85
2018-02-06T13:34:40.746Z,22.40
2018-02-06T13:37:09.734Z,24.23
2018-02-06T13:39:40.137Z,22.60
2018-02-06T13:42:09.970Z,24.00
2018-02-06T13:44:41.391Z,23.80
2018-02-06T13:47:10.612Z,22.90
2018-02-06T13:49:41.621Z,22.37
2018-02-06T13:52:10.967Z,24.12
2018-02-06T13:54:39.141Z,24.30
2018-02-06T13:57:10.977Z,25.55
2018-02-06T13:59:42.535Z,24.90
2018-02-06T14:02:11.513Z,26.87
2018-02-06T14:04:42.570Z,25.58
2018-02-06T14:07:22.201Z,25.80
2018-02-06T14:09:51.982Z,24.58
2018-02-06T14:12:22.392Z,23.98
2018-02-06T14:14:51.805Z,23.08
2018-02-06T14:17:22.294Z,25.35
2018-02-06T14:19:50.470Z,24.45
2018-02-06T14:22:19.413Z,27.42
2018-02-06T14:24:47.837Z,25.25
2018-02-06T14:27:17.624Z,24.60
2018-02-06T14:29:45.781Z,26.05
2018-02-06T14:32:14.061Z,24.55
2018-02-06T14:34:43.366Z,27.50
2018-02-06T14:37:11.543Z,26.42
2018-02-06T14:39:39.843Z,23.60
2018-02-06T14:42:09.716Z,25.02
2018-02-06T14:44:37.926Z,26.42
2018-02-06T14:47:07.021Z,24.25
2018-02-06T14:49:36.449Z,25.10
2018-02-06T14:52:04.789Z,28.23
2018-02-06T14:54:33.934Z,26.30
2018-02-06T14:57:02.218Z,26.62
2018-02-06T14:59:30.376Z,25.37
2018-02-06T15:01:58.556Z,25.33
2018-02-06T15:04:27.549Z,26.37
2018-02-06T15:06:57.052Z,24.40
2018-02-06T15:09:25.991Z,24.30
2018-02-06T15:11:54.173Z,26.73
2018-02-06T15:14:22.364Z,25.92
2018-02-06T15:16:51.678Z,25.95
2018-02-06T15:19:20.669Z,26.00
2018-02-06T15:21:48.840Z,24.65
2018-02-06T16:00:45.985Z,26.33
2018-02-06T16:03:14.137Z,24.30
2018-02-06T16:05:42.383Z,26.05
2018-02-06T16:10:48.150Z,26.67
2018-02-06T16:13:18.084Z,25.88
2018-02-06T16:15:47.193Z,24.27
2018-02-06T16:18:17.382Z,27.70
2018-02-06T16:20:46.397Z,25.58
2018-02-06T16:23:14.581Z,27.33
2018-02-06T16:25:43.868Z,28.50
2018-02-06T16:28:13.390Z,27.90
2018-02-06T16:30:42.292Z,25.88
2018-02-06T16:33:11.260Z,24.63
2018-02-06T16:35:40.606Z,29.95
2018-02-06T16:38:10.906Z,27.37
2018-02-06T16:40:40.169Z,27.05
2018-02-06T16:43:09.740Z,26.30
2018-02-06T16:45:37.962Z,26.08
2018-02-06T16:48:06.832Z,27.70
2018-02-06T16:50:35.755Z,27.95
2018-02-06T16:53:03.952Z,35.38
2018-02-06T16:55:32.139Z,26.12
2018-02-06T16:58:00.610Z,26.77
2018-02-06T17:00:30.081Z,26.83
2018-02-06T17:06:04.493Z,24.15
2018-02-06T17:08:39.683Z,25.05
2018-02-06T17:11:13.016Z,27.42
2018-02-06T17:13:42.212Z,28.08
2018-02-06T17:16:12.259Z,27.05
2018-02-06T17:18:42.222Z,26.37
2018-02-06T17:21:12.703Z,25.48
2018-02-06T17:23:42.087Z,26.92
2018-02-06T17:26:10.775Z,26.02
2018-02-06T17:28:38.946Z,27.25
2018-02-06T17:31:08.388Z,27.27
2018-02-06T17:33:37.670Z,30.02
2018-02-06T17:36:05.902Z,29.60
2018-02-06T17:38:34.050Z,27.55
2018-02-06T17:41:04.571Z,28.30
2018-02-06T17:43:33.519Z,30.35
2018-02-06T17:46:03.161Z,30.08
2018-02-06T17:48:32.735Z,30.67
2018-02-06T17:51:01.660Z,28.77
2018-02-06T17:53:32.455Z,29.83
2018-02-06T17:56:01.516Z,27.77
2018-02-06T17:58:29.736Z,28.00
2018-02-06T18:01:02.837Z,29.17
2018-02-06T18:03:31.992Z,31.37
2018-02-06T18:06:00.291Z,30.58
2018-02-06T18:08:34.645Z,32.30
2018-02-06T18:11:14.126Z,29.63
2018-02-06T18:13:43.450Z,30.73
2018-02-06T18:16:15.048Z,29.08
2018-02-06T18:18:44.166Z,28.58
2018-02-06T18:21:12.424Z,30.83
2018-02-06T18:23:40.602Z,30.75
2018-02-06T18:26:09.682Z,31.80
2018-02-06T18:28:39.751Z,31.33
2018-02-06T18:31:10.629Z,27.85
2018-02-06T18:33:39.640Z,25.52
2018-02-06T18:36:08.682Z,23.92
2018-02-06T18:38:36.857Z,24.15
2018-02-06T18:41:06.103Z,26.52
2018-02-06T18:43:34.409Z,23.48
2018-02-06T18:46:03.313Z,23.02
2018-02-06T18:48:34.227Z,20.70
2018-02-06T18:51:03.371Z,24.63
2018-02-06T18:53:32.148Z,22.13
2018-02-06T18:56:01.496Z,25.12
2018-02-06T18:58:30.646Z,24.40
2018-02-06T19:00:58.884Z,25.10
2018-02-06T19:03:27.050Z,24.45
2018-02-06T19:05:55.305Z,24.98
2018-02-06T19:08:25.522Z,24.15
2018-02-06T19:10:54.131Z,24.30
2018-02-06T19:13:23.637Z,29.37
2018-02-06T19:15:51.808Z,27.40
2018-02-06T19:18:33.059Z,21.65
2018-02-06T19:21:01.920Z,24.85
2018-02-06T19:23:32.513Z,24.70
2018-02-06T19:26:02.830Z,24.48
2018-02-06T19:28:34.788Z,23.92
2018-02-06T19:31:03.992Z,23.83
2018-02-06T19:33:32.168Z,23.80
2018-02-06T19:36:00.338Z,24.85
2018-02-06T19:38:31.494Z,25.00
2018-02-06T19:41:01.392Z,27.25
2018-02-06T19:43:33.967Z,25.83
2018-02-06T19:46:02.735Z,27.25
2018-02-06T19:48:33.235Z,29.48
2018-02-06T19:51:01.423Z,28.05
2018-02-06T19:53:29.595Z,28.62
2018-02-06T19:55:58.769Z,30.62
2018-02-06T19:58:29.173Z,25.20
2018-02-06T20:00:57.355Z,24.85
2018-02-06T20:03:26.285Z,25.35
2018-02-06T20:05:57.152Z,24.77
2018-02-06T20:08:32.761Z,23.95
2018-02-06T20:11:04.605Z,21.92
2018-02-06T20:13:43.182Z,22.92
2018-02-06T20:16:13.268Z,26.27
2018-02-06T20:18:44.165Z,24.92
2018-02-06T20:21:12.717Z,22.85
2018-02-06T20:23:42.298Z,25.88
2018-02-06T20:26:11.167Z,26.30
2018-02-06T20:28:40.012Z,27.35
2018-02-06T20:31:09.374Z,24.30
2018-02-06T20:33:37.769Z,25.00
2018-02-06T20:36:07.573Z,24.98
2018-02-06T20:38:37.257Z,22.67
2018-02-06T20:41:06.365Z,21.70
2018-02-06T20:43:37.348Z,22.75
2018-02-06T20:46:06.412Z,23.40
2018-02-06T20:48:36.825Z,23.23
2018-02-06T20:51:05.282Z,24.55
2018-02-06T20:53:33.453Z,27.42
2018-02-06T20:56:02.341Z,25.00
2018-02-06T20:58:32.363Z,23.92
2018-02-06T21:01:03.100Z,24.63
2018-02-06T21:03:32.127Z,29.08
2018-02-06T21:06:00.901Z,27.13
2018-02-06T21:08:30.903Z,23.30
2018-02-06T21:11:00.712Z,25.35
2018-02-06T21:13:31.945Z,27.05
2018-02-06T21:16:00.195Z,22.95
2018-02-06T21:18:31.801Z,22.50
2018-02-06T21:21:00.936Z,24.35
2018-02-06T21:23:30.515Z,23.90
2018-02-06T21:25:59.456Z,26.92
2018-02-06T21:28:40.898Z,25.73
2018-02-06T21:31:10.262Z,25.98
2018-02-06T21:33:39.896Z,22.80
2018-02-06T21:36:10.134Z,27.85
2018-02-06T21:38:39.780Z,32.33
2018-02-06T21:41:09.746Z,31.60
2018-02-06T21:43:38.174Z,32.05
2018-02-06T21:46:06.428Z,30.23
2018-02-06T21:48:35.494Z,25.00
2018-02-06T21:51:05.717Z,23.85
2018-02-06T21:53:36.153Z,23.42
2018-02-06T21:58:40.246Z,30.75
2018-02-06T22:01:08.510Z,26.17
2018-02-06T22:03:38.251Z,24.52
2018-02-06T22:06:09.046Z,28.77
2018-02-06T22:08:39.606Z,25.10
2018-02-06T22:11:09.605Z,23.87
2018-02-06T22:13:39.745Z,25.50
2018-02-06T22:16:09.750Z,22.33
2018-02-06T22:18:41.147Z,28.00
2018-02-06T22:21:11.144Z,24.50
2018-02-06T22:23:40.190Z,26.67
2018-02-06T22:26:11.878Z,25.92
2018-02-06T22:28:40.754Z,28.30
2018-02-06T22:31:11.764Z,27.30
2018-02-06T22:33:42.078Z,25.05
2018-02-06T22:36:11.879Z,26.15
2018-02-06T22:38:42.078Z,23.38
2018-02-06T22:41:11.764Z,24.05
2018-02-06T22:43:40.811Z,27.17
2018-02-06T22:46:10.651Z,24.55
2018-02-06T22:48:41.382Z,24.55
2018-02-06T22:51:11.481Z,24.77
2018-02-06T22:53:41.822Z,24.10
2018-02-06T22:56:15.050Z,24.98
2018-02-06T22:58:45.326Z,24.08
2018-02-06T23:01:18.976Z,26.08
2018-02-06T23:03:50.472Z,25.05
2018-02-06T23:06:21.357Z,24.25
2018-02-06T23:08:51.588Z,23.73
2018-02-06T23:11:22.338Z,26.02
2018-02-06T23:13:52.002Z,26.70
2018-02-06T23:16:23.853Z,26.35
2018-02-06T23:18:53.634Z,28.33
2018-02-06T23:21:23.206Z,29.65
2018-02-06T23:23:51.380Z,29.60
2018-02-06T23:26:20.270Z,28.50
2018-02-06T23:28:48.773Z,25.95
2018-02-06T23:31:18.425Z,24.20
2018-02-06T23:33:50.891Z,27.80
2018-02-06T23:36:21.097Z,27.60
2018-02-06T23:38:50.309Z,27.33
2018-02-06T23:41:19.278Z,25.58
2018-02-06T23:43:49.316Z,25.62
2018-02-06T23:46:18.675Z,29.67
2018-02-06T23:48:47.912Z,28.42
2018-02-06T23:51:18.957Z,26.08
2018-02-06T23:53:50.193Z,26.37
2018-02-06T23:56:19.906Z,27.25
2018-02-06T23:58:49.807Z,29.12
